createdAt,value
2019-03-06T00:00:38.456Z,5.20
2019-03-06T00:03:07.150Z,5.57
2019-03-06T00:05:35.659Z,5.67
2019-03-06T00:08:04.110Z,6.20
2019-03-06T00:10:34.159Z,5.57
2019-03-06T00:13:02.644Z,6.00
2019-03-06T00:15:31.157Z,6.00
2019-03-06T00:17:59.682Z,5.90
2019-03-06T00:20:28.119Z,5.90
2019-03-06T00:22:56.576Z,6.43
2019-03-06T00:25:25.014Z,6.33
2019-03-06T00:27:53.480Z,6.03
2019-03-06T00:30:21.906Z,6.27
2019-03-06T00:32:50.360Z,6.43
2019-03-06T00:35:26.130Z,5.97
2019-03-06T00:37:54.576Z,6.10
2019-03-06T00:40:39.790Z,6.77
2019-03-06T00:43:08.239Z,6.27
2019-03-06T00:45:36.666Z,5.57
2019-03-06T00:48:05.199Z,6.00
2019-03-06T00:50:33.629Z,6.20
2019-03-06T00:53:02.362Z,6.27
2019-03-06T00:55:30.802Z,5.63
2019-03-06T00:57:59.253Z,6.70
2019-03-06T01:00:27.722Z,6.63
2019-03-06T01:02:56.293Z,6.00
2019-03-06T01:05:24.995Z,6.30
2019-03-06T01:07:53.607Z,6.77
2019-03-06T01:10:22.242Z,6.00
2019-03-06T01:12:50.771Z,6.30
2019-03-06T01:15:19.748Z,6.27
2019-03-06T01:17:48.480Z,6.13
2019-03-06T01:20:17.183Z,6.17
2019-03-06T01:22:45.675Z,6.10
2019-03-06T01:25:18.795Z,5.23
2019-03-06T01:27:47.250Z,6.30
2019-03-06T01:30:20.788Z,6.00
2019-03-06T01:32:50.931Z,6.63
2019-03-06T01:35:29.779Z,5.93
2019-03-06T01:38:08.915Z,5.73
2019-03-06T01:40:56.578Z,5.93
2019-03-06T01:43:41.511Z,7.10
2019-03-06T01:46:09.947Z,6.30
2019-03-06T01:48:38.474Z,6.43
2019-03-06T01:51:06.922Z,6.43
2019-03-06T01:53:35.375Z,6.07
2019-03-06T01:56:03.815Z,6.43
2019-03-06T01:58:32.267Z,6.63
2019-03-06T02:01:00.698Z,5.97
2019-03-06T02:03:29.139Z,6.57
2019-03-06T02:05:57.605Z,6.97
2019-03-06T02:08:26.029Z,7.27
2019-03-06T02:10:54.499Z,6.87
2019-03-06T02:13:23.676Z,7.30
2019-03-06T02:15:52.152Z,7.10
2019-03-06T02:18:20.693Z,7.43
2019-03-06T02:20:49.195Z,7.67
2019-03-06T02:23:17.634Z,7.43
2019-03-06T02:25:46.088Z,8.50
2019-03-06T02:28:14.527Z,7.97
2019-03-06T02:30:42.995Z,7.40
2019-03-06T02:33:11.578Z,8.20
2019-03-06T02:35:40.308Z,7.80
2019-03-06T02:38:08.748Z,8.63
2019-03-06T02:40:37.226Z,9.10
2019-03-06T02:43:05.659Z,8.20
2019-03-06T02:45:34.122Z,9.27
2019-03-06T02:48:02.672Z,8.27
2019-03-06T02:50:31.198Z,8.90
2019-03-06T02:52:59.641Z,8.93
2019-03-06T02:55:28.114Z,9.07
2019-03-06T02:58:07.291Z,8.43
2019-03-06T03:00:37.660Z,8.73
2019-03-06T03:03:13.801Z,8.87
2019-03-06T03:05:53.066Z,8.73
2019-03-06T03:08:21.518Z,9.00
2019-03-06T03:10:50.028Z,9.90
2019-03-06T03:13:18.554Z,9.00
2019-03-06T03:15:47.020Z,9.60
2019-03-06T03:18:15.464Z,9.40
2019-03-06T03:20:43.921Z,9.93
2019-03-06T03:23:12.628Z,9.50
2019-03-06T03:25:41.079Z,10.47
2019-03-06T03:28:09.520Z,9.97
2019-03-06T03:30:37.988Z,10.23
2019-03-06T03:33:06.421Z,9.70
2019-03-06T03:35:34.914Z,10.07
2019-03-06T03:38:03.438Z,9.57
2019-03-06T03:40:31.959Z,9.57
2019-03-06T03:43:00.402Z,9.93
2019-03-06T03:45:28.848Z,9.87
2019-03-06T03:47:57.296Z,9.10
2019-03-06T03:50:25.936Z,9.40
2019-03-06T03:52:54.369Z,9.10
2019-03-06T03:55:22.833Z,9.53
2019-03-06T03:57:51.344Z,9.80
2019-03-06T04:00:21.836Z,9.80
2019-03-06T04:02:50.553Z,9.40
2019-03-06T04:05:19.172Z,9.80
2019-03-06T04:07:47.668Z,9.07
2019-03-06T04:10:16.387Z,8.70
2019-03-06T04:12:44.904Z,9.20
2019-03-06T04:15:18.387Z,9.13
2019-03-06T04:17:46.901Z,9.70
2019-03-06T04:20:16.299Z,8.93
2019-03-06T04:22:44.808Z,8.83
2019-03-06T04:25:13.730Z,9.20
2019-03-06T04:27:42.231Z,9.47
2019-03-06T04:30:12.754Z,9.43
2019-03-06T04:32:41.238Z,9.23
2019-03-06T04:35:09.992Z,8.83
2019-03-06T04:37:38.499Z,9.07
2019-03-06T04:40:12.400Z,9.40
2019-03-06T04:42:40.860Z,9.13
2019-03-06T04:45:14.171Z,9.27
2019-03-06T04:47:42.601Z,9.30
2019-03-06T04:50:12.414Z,8.60
2019-03-06T04:52:41.218Z,9.53
2019-03-06T04:55:11.128Z,9.33
2019-03-06T04:57:39.567Z,8.83
2019-03-06T05:00:15.751Z,8.80
2019-03-06T05:02:44.186Z,8.53
2019-03-06T05:05:12.643Z,9.57
2019-03-06T05:07:41.090Z,9.20
2019-03-06T05:10:11.750Z,9.10
2019-03-06T05:12:40.331Z,8.93
2019-03-06T05:15:13.117Z,9.07
2019-03-06T05:17:43.187Z,8.33
2019-03-06T05:20:11.616Z,9.13
2019-03-06T05:22:40.077Z,9.67
2019-03-06T05:25:08.652Z,9.83
2019-03-06T05:27:37.110Z,9.20
2019-03-06T05:30:10.801Z,9.70
2019-03-06T05:32:39.324Z,9.40
2019-03-06T05:35:22.572Z,9.13
2019-03-06T05:37:57.150Z,8.90
2019-03-06T05:40:25.602Z,9.40
2019-03-06T05:42:54.044Z,8.60
2019-03-06T05:45:22.525Z,9.00
2019-03-06T05:47:51.031Z,9.43
2019-03-06T05:50:20.443Z,8.50
2019-03-06T05:52:48.977Z,10.10
2019-03-06T05:55:17.429Z,9.87
2019-03-06T05:57:45.948Z,9.50
2019-03-06T06:00:16.871Z,10.40
2019-03-06T06:02:45.386Z,10.20
2019-03-06T06:05:14.195Z,10.63
2019-03-06T06:07:42.729Z,10.40
2019-03-06T06:10:13.485Z,10.33
2019-03-06T06:12:41.941Z,10.47
2019-03-06T06:15:12.046Z,10.40
2019-03-06T06:17:40.509Z,11.10
2019-03-06T06:20:11.650Z,10.23
2019-03-06T06:22:50.445Z,10.07
2019-03-06T06:25:18.903Z,9.53
2019-03-06T06:27:47.350Z,9.73
2019-03-06T06:30:16.469Z,10.07
2019-03-06T06:32:44.939Z,10.33
2019-03-06T06:35:13.625Z,9.87
2019-03-06T06:37:42.248Z,9.83
2019-03-06T06:40:12.347Z,10.30
2019-03-06T06:42:40.806Z,9.60
2019-03-06T06:45:16.356Z,9.50
2019-03-06T06:48:18.882Z,9.60
2019-03-06T06:51:11.169Z,9.10
2019-03-06T06:53:42.662Z,9.47
2019-03-06T06:56:39.586Z,8.80
2019-03-06T06:59:11.540Z,9.57
2019-03-06T07:01:56.471Z,9.13
2019-03-06T07:04:56.619Z,9.30
2019-03-06T07:07:35.822Z,9.97
2019-03-06T07:10:13.019Z,9.37
2019-03-06T07:12:43.107Z,9.60
2019-03-06T07:15:13.195Z,9.40
2019-03-06T07:17:45.986Z,9.37
2019-03-06T07:20:16.088Z,9.53
2019-03-06T07:22:46.279Z,10.13
2019-03-06T07:25:32.602Z,10.27
2019-03-06T07:28:18.471Z,9.33
2019-03-06T07:31:00.581Z,9.40
2019-03-06T07:33:30.739Z,9.97
2019-03-06T07:36:06.523Z,10.53
2019-03-06T07:38:34.991Z,9.67
2019-03-06T07:41:05.097Z,9.90
2019-03-06T07:43:35.191Z,9.80
2019-03-06T07:46:07.963Z,9.40
2019-03-06T07:48:40.740Z,9.63
2019-03-06T07:51:16.707Z,9.90
2019-03-06T07:53:50.704Z,8.60
2019-03-06T07:56:21.496Z,9.73
2019-03-06T07:58:54.097Z,9.13
2019-03-06T08:01:24.676Z,9.77
2019-03-06T08:03:56.295Z,9.53
2019-03-06T08:06:25.021Z,8.47
2019-03-06T08:08:53.471Z,9.17
2019-03-06T08:11:23.552Z,9.17
2019-03-06T08:13:53.732Z,9.10
2019-03-06T08:16:29.587Z,8.60
2019-03-06T08:18:59.687Z,9.03
2019-03-06T08:21:29.780Z,8.87
2019-03-06T08:23:59.905Z,8.50
2019-03-06T08:26:28.424Z,8.47
2019-03-06T08:28:57.033Z,9.03
2019-03-06T08:31:31.765Z,8.03
2019-03-06T08:34:00.341Z,8.03
2019-03-06T08:36:28.861Z,7.70
2019-03-06T08:38:57.315Z,7.30
2019-03-06T08:41:25.789Z,7.80
2019-03-06T08:43:54.287Z,7.57
2019-03-06T08:46:39.223Z,7.73
2019-03-06T08:49:24.364Z,7.53
2019-03-06T08:51:56.838Z,7.77
2019-03-06T08:54:35.736Z,7.87
2019-03-06T08:57:06.237Z,7.20
2019-03-06T08:59:54.090Z,7.27
2019-03-06T09:02:37.556Z,7.03
2019-03-06T09:05:26.606Z,7.17
2019-03-06T09:07:56.752Z,7.07
2019-03-06T09:10:43.161Z,7.00
2019-03-06T09:13:13.237Z,7.10
2019-03-06T09:15:58.145Z,7.50
2019-03-06T09:18:31.339Z,8.13
2019-03-06T09:21:01.433Z,7.90
2019-03-06T09:23:47.427Z,7.40
2019-03-06T09:26:23.275Z,7.77
2019-03-06T09:29:01.112Z,7.37
2019-03-06T09:31:27.696Z,8.23
2019-03-06T09:34:14.084Z,8.23
2019-03-06T09:36:44.174Z,8.40
2019-03-06T09:39:20.631Z,8.00
2019-03-06T09:41:50.815Z,8.60
2019-03-06T09:44:21.055Z,8.40
2019-03-06T09:46:51.152Z,7.87
2019-03-06T09:49:21.252Z,7.27
2019-03-06T09:52:00.265Z,6.90
2019-03-06T09:54:33.306Z,6.93
2019-03-06T09:57:18.241Z,7.03
2019-03-06T09:59:54.047Z,8.13
2019-03-06T10:02:40.738Z,5.87
2019-03-06T10:05:13.760Z,5.60
2019-03-06T10:07:49.780Z,6.00
2019-03-06T10:10:34.975Z,5.60
2019-03-06T10:13:11.072Z,6.63
2019-03-06T10:15:41.143Z,6.77
2019-03-06T10:18:11.238Z,5.70
2019-03-06T10:20:39.673Z,6.23
2019-03-06T10:23:08.459Z,5.90
2019-03-06T10:25:36.932Z,5.47
2019-03-06T10:28:06.616Z,5.50
2019-03-06T10:30:35.443Z,5.20
2019-03-06T10:33:04.061Z,5.00
2019-03-06T10:35:32.574Z,5.33
2019-03-06T10:38:01.199Z,5.60
2019-03-06T10:40:29.729Z,4.87
2019-03-06T10:42:58.359Z,6.57
2019-03-06T10:45:26.871Z,6.03
2019-03-06T10:47:55.618Z,6.10
2019-03-06T10:52:54.447Z,6.53
2019-03-06T10:55:23.095Z,6.70
2019-03-06T10:57:51.834Z,6.70
2019-03-06T11:00:27.345Z,6.90
2019-03-06T11:02:56.998Z,6.60
2019-03-06T11:05:30.108Z,6.27
2019-03-06T11:07:59.666Z,6.47
2019-03-06T11:10:29.937Z,5.83
2019-03-06T11:12:58.803Z,5.90
2019-03-06T11:15:27.326Z,5.40
2019-03-06T11:17:55.938Z,5.30
2019-03-06T11:20:37.879Z,4.97
2019-03-06T11:23:08.650Z,5.20
2019-03-06T11:25:37.966Z,4.90
2019-03-06T11:28:12.035Z,4.80
2019-03-06T11:30:49.044Z,5.50
2019-03-06T11:33:19.328Z,5.00
2019-03-06T11:35:48.107Z,5.33
2019-03-06T11:38:16.778Z,4.57
2019-03-06T11:40:45.452Z,4.90
2019-03-06T11:43:13.918Z,4.10
2019-03-06T11:45:43.070Z,4.47
2019-03-06T11:48:12.352Z,4.40
2019-03-06T11:50:41.323Z,4.40
2019-03-06T11:53:10.038Z,4.90
2019-03-06T11:55:38.610Z,4.37
2019-03-06T11:58:09.792Z,4.47
2019-03-06T12:00:42.887Z,4.37
2019-03-06T12:03:12.454Z,4.50
2019-03-06T12:05:41.210Z,4.10
2019-03-06T12:08:15.676Z,3.80
2019-03-06T12:10:44.527Z,3.73
2019-03-06T12:13:14.402Z,3.77
2019-03-06T12:15:45.318Z,4.07
2019-03-06T12:18:14.415Z,3.47
2019-03-06T12:20:43.216Z,3.57
2019-03-06T12:23:11.743Z,3.77
2019-03-06T12:25:41.306Z,3.40
2019-03-06T12:28:11.899Z,4.10
2019-03-06T12:30:40.407Z,4.03
2019-03-06T12:33:09.215Z,4.37
2019-03-06T12:35:37.851Z,4.07
2019-03-06T12:38:06.363Z,3.50
2019-03-06T12:40:35.165Z,3.80
2019-03-06T12:43:03.914Z,3.40
2019-03-06T12:45:32.442Z,3.67
2019-03-06T12:48:04.003Z,3.43
2019-03-06T12:50:39.208Z,3.03
2019-03-06T12:53:07.799Z,3.60
2019-03-06T12:55:36.462Z,3.27
2019-03-06T12:58:06.496Z,3.60
2019-03-06T13:00:35.619Z,3.60
2019-03-06T13:03:04.487Z,3.37
2019-03-06T13:05:33.026Z,3.30
2019-03-06T13:08:01.551Z,3.70
2019-03-06T13:10:30.098Z,3.40
2019-03-06T13:12:58.686Z,2.73
2019-03-06T13:15:27.590Z,2.90
2019-03-06T13:17:56.438Z,2.80
2019-03-06T13:20:25.062Z,2.73
2019-03-06T13:22:54.646Z,3.13
2019-03-06T13:25:24.078Z,3.20
2019-03-06T13:27:55.081Z,2.37
2019-03-06T13:30:24.718Z,3.23
2019-03-06T13:33:00.856Z,2.50
2019-03-06T13:35:30.757Z,2.50
2019-03-06T13:37:59.279Z,2.43
2019-03-06T13:40:27.814Z,2.80
2019-03-06T13:42:56.327Z,2.23
2019-03-06T13:45:24.942Z,2.47
2019-03-06T13:47:53.463Z,2.70
2019-03-06T13:50:22.135Z,2.30
2019-03-06T13:52:50.662Z,2.20
2019-03-06T13:55:19.204Z,2.73
2019-03-06T13:57:47.894Z,2.23
2019-03-06T14:00:20.910Z,2.33
2019-03-06T14:02:50.329Z,2.60
2019-03-06T14:05:20.374Z,2.40
2019-03-06T14:07:56.034Z,2.20
2019-03-06T14:10:23.684Z,2.27
2019-03-06T14:12:52.482Z,2.33
2019-03-06T14:15:21.543Z,2.60
2019-03-06T14:17:50.222Z,2.23
2019-03-06T14:20:23.170Z,2.60
2019-03-06T14:22:52.025Z,2.30
2019-03-06T14:25:21.107Z,2.90
2019-03-06T14:27:49.619Z,2.50
2019-03-06T14:30:21.215Z,2.63
2019-03-06T14:32:50.271Z,2.70
2019-03-06T14:35:18.878Z,2.73
2019-03-06T14:37:47.459Z,2.50
2019-03-06T14:40:30.330Z,2.27
2019-03-06T14:42:59.492Z,2.40
2019-03-06T14:45:28.073Z,2.37
2019-03-06T14:47:56.734Z,2.53
2019-03-06T14:50:25.232Z,2.70
2019-03-06T14:52:53.768Z,2.50
2019-03-06T14:55:22.281Z,2.33
2019-03-06T14:57:50.816Z,2.70
2019-03-06T15:00:20.446Z,2.63
2019-03-06T15:02:48.991Z,2.73
2019-03-06T15:05:18.541Z,3.00
2019-03-06T15:07:47.510Z,2.80
2019-03-06T15:10:16.870Z,3.00
2019-03-06T15:12:45.410Z,2.80
2019-03-06T15:15:18.301Z,2.90
2019-03-06T15:17:47.002Z,2.70
2019-03-06T15:20:21.238Z,2.90
2019-03-06T15:22:50.994Z,3.00
2019-03-06T15:25:22.018Z,2.93
2019-03-06T15:27:50.548Z,3.50
2019-03-06T15:30:19.403Z,2.80
2019-03-06T15:32:48.217Z,3.17
2019-03-06T15:35:16.979Z,3.00
2019-03-06T15:37:45.661Z,3.23
2019-03-06T15:40:27.370Z,3.20
2019-03-06T15:42:56.026Z,4.80
2019-03-06T15:45:26.367Z,3.73
2019-03-06T15:47:55.107Z,3.30
2019-03-06T15:50:23.720Z,3.03
2019-03-06T15:52:52.262Z,2.87
2019-03-06T15:55:23.839Z,3.57
2019-03-06T15:57:52.304Z,3.20
2019-03-06T16:00:35.043Z,3.50
2019-03-06T16:03:05.618Z,3.33
2019-03-06T16:05:34.677Z,3.00
2019-03-06T16:08:03.263Z,3.10
2019-03-06T16:10:31.847Z,3.20
2019-03-06T16:13:00.378Z,3.37
2019-03-06T16:15:29.934Z,3.57
2019-03-06T16:18:01.013Z,3.40
2019-03-06T16:20:29.464Z,3.87
2019-03-06T16:22:58.009Z,3.90
2019-03-06T16:25:36.056Z,4.13
2019-03-06T16:27:56.851Z,4.30
2019-03-06T16:30:26.782Z,4.70
2019-03-06T16:32:55.332Z,4.73
2019-03-06T16:35:23.836Z,4.27
2019-03-06T16:37:52.305Z,4.67
2019-03-06T16:40:22.070Z,4.40
2019-03-06T16:42:50.855Z,5.10
2019-03-06T16:45:23.885Z,5.40
2019-03-06T16:47:52.440Z,5.10
2019-03-06T16:50:21.686Z,5.50
2019-03-06T16:52:50.292Z,5.43
2019-03-06T16:55:21.015Z,5.40
2019-03-06T16:57:49.644Z,6.07
2019-03-06T17:00:26.401Z,5.87
2019-03-06T17:02:55.409Z,5.87
2019-03-06T17:05:24.090Z,6.07
2019-03-06T17:07:52.921Z,6.03
2019-03-06T17:10:28.729Z,5.90
2019-03-06T17:12:57.329Z,5.90
2019-03-06T17:15:26.733Z,6.20
2019-03-06T17:17:55.495Z,5.77
2019-03-06T17:20:28.908Z,6.13
2019-03-06T17:22:57.979Z,6.00
2019-03-06T17:25:28.282Z,6.20
2019-03-06T17:27:56.862Z,5.80
2019-03-06T17:30:27.714Z,5.80
2019-03-06T17:33:07.194Z,6.30
2019-03-06T17:35:36.050Z,6.40
2019-03-06T17:38:06.314Z,6.60
2019-03-06T17:40:34.837Z,6.03
2019-03-06T17:43:03.538Z,6.10
2019-03-06T17:45:32.068Z,5.97
2019-03-06T17:48:00.958Z,5.83
2019-03-06T17:50:29.564Z,5.60
2019-03-06T17:52:58.147Z,5.90
2019-03-06T17:55:26.929Z,5.87
2019-03-06T17:57:55.534Z,6.17
2019-03-06T18:00:45.860Z,6.03
2019-03-06T18:03:16.010Z,5.90
2019-03-06T18:05:44.547Z,5.67
2019-03-06T18:08:13.061Z,5.50
2019-03-06T18:10:41.762Z,5.53
2019-03-06T18:13:10.482Z,5.33
2019-03-06T18:15:39.032Z,6.10
2019-03-06T18:18:07.545Z,5.33
2019-03-06T18:20:36.086Z,5.27
2019-03-06T18:23:04.659Z,5.53
2019-03-06T18:25:33.237Z,4.87
2019-03-06T18:28:01.763Z,5.30
2019-03-06T18:30:30.275Z,4.90
2019-03-06T18:32:58.811Z,5.50
2019-03-06T18:35:27.390Z,4.93
2019-03-06T18:37:56.066Z,5.00
2019-03-06T18:40:25.854Z,4.50
2019-03-06T18:42:55.093Z,4.80
2019-03-06T18:45:23.605Z,4.43
2019-03-06T18:47:52.931Z,4.77
2019-03-06T18:50:24.843Z,4.57
2019-03-06T18:52:53.418Z,4.77
2019-03-06T18:55:22.122Z,4.80
2019-03-06T18:57:50.815Z,5.10
2019-03-06T19:00:26.194Z,4.60
2019-03-06T19:02:54.644Z,4.50
2019-03-06T19:05:23.305Z,5.37
2019-03-06T19:07:52.117Z,4.87
2019-03-06T19:10:22.551Z,4.73
2019-03-06T19:12:51.389Z,4.57
2019-03-06T19:15:22.111Z,4.10
2019-03-06T19:17:50.627Z,4.30
2019-03-06T19:20:21.071Z,4.20
2019-03-06T19:22:51.050Z,4.40
2019-03-06T19:25:19.641Z,3.63
2019-03-06T19:27:48.473Z,3.90
2019-03-06T19:30:24.902Z,3.80
2019-03-06T19:32:53.588Z,3.67
2019-03-06T19:35:29.875Z,4.07
2019-03-06T19:37:58.454Z,3.87
2019-03-06T19:40:27.202Z,3.83
2019-03-06T19:42:55.708Z,3.83
2019-03-06T19:45:26.105Z,3.90
2019-03-06T19:47:54.630Z,3.77
2019-03-06T19:50:25.859Z,3.70
2019-03-06T19:52:54.643Z,3.50
2019-03-06T19:55:23.562Z,3.53
2019-03-06T19:58:03.991Z,3.60
2019-03-06T20:00:33.660Z,3.80
2019-03-06T20:03:02.512Z,3.87
2019-03-06T20:05:34.800Z,4.13
2019-03-06T20:08:06.897Z,3.50
2019-03-06T20:10:35.582Z,3.57
2019-03-06T20:13:04.264Z,3.67
2019-03-06T20:15:32.815Z,3.70
2019-03-06T20:18:01.345Z,3.70
2019-03-06T20:20:29.889Z,3.47
2019-03-06T20:22:58.592Z,3.97
2019-03-06T20:25:27.155Z,3.70
2019-03-06T20:27:55.677Z,3.50
2019-03-06T20:30:28.057Z,3.60
2019-03-06T20:32:57.208Z,3.30
2019-03-06T20:35:26.558Z,3.67
2019-03-06T20:37:55.392Z,3.33
2019-03-06T20:40:23.862Z,3.83
2019-03-06T20:42:52.489Z,3.90
2019-03-06T20:45:21.110Z,3.53
2019-03-06T20:47:49.617Z,3.70
2019-03-06T20:50:21.353Z,3.40
2019-03-06T20:52:50.481Z,3.77
2019-03-06T20:55:19.103Z,3.77
2019-03-06T20:57:47.625Z,3.60
2019-03-06T21:00:32.182Z,3.70
2019-03-06T21:03:00.715Z,3.47
2019-03-06T21:05:29.310Z,3.70
2019-03-06T21:07:57.830Z,3.50
2019-03-06T21:10:26.368Z,3.77
2019-03-06T21:12:55.085Z,3.57
2019-03-06T21:15:24.183Z,3.97
2019-03-06T21:17:52.934Z,3.70
2019-03-06T21:20:23.592Z,3.43
2019-03-06T21:22:52.108Z,3.73
2019-03-06T21:25:21.456Z,3.97
2019-03-06T21:27:50.365Z,3.70
2019-03-06T21:30:42.625Z,3.70
2019-03-06T21:33:11.066Z,3.70
2019-03-06T21:35:39.576Z,3.63
2019-03-06T21:38:08.124Z,3.20
2019-03-06T21:40:36.649Z,4.07
2019-03-06T21:43:05.193Z,4.13
2019-03-06T21:45:34.036Z,3.73
2019-03-06T21:48:02.523Z,3.90
2019-03-06T21:50:31.035Z,4.13
2019-03-06T21:52:59.583Z,3.60
2019-03-06T21:55:28.202Z,3.60
2019-03-06T21:57:56.762Z,3.80
2019-03-06T22:00:25.449Z,4.17
2019-03-06T22:02:53.995Z,4.00
2019-03-06T22:05:22.511Z,3.70
2019-03-06T22:07:51.519Z,4.20
2019-03-06T22:10:20.066Z,3.80
2019-03-06T22:12:48.624Z,3.93
2019-03-06T22:15:18.698Z,3.67
2019-03-06T22:17:47.237Z,3.93
2019-03-06T22:20:16.461Z,3.77
2019-03-06T22:22:45.039Z,4.07
2019-03-06T22:25:15.644Z,3.60
2019-03-06T22:27:44.171Z,3.80
2019-03-06T22:30:15.126Z,3.97
2019-03-06T22:32:43.658Z,3.73
2019-03-06T22:35:12.230Z,4.03
2019-03-06T22:37:40.757Z,3.47
2019-03-06T22:40:14.399Z,4.07
2019-03-06T22:42:42.937Z,3.20
2019-03-06T22:45:13.795Z,4.17
2019-03-06T22:47:42.344Z,4.20
2019-03-06T22:50:13.569Z,3.83
2019-03-06T22:52:42.084Z,4.10
2019-03-06T22:55:13.223Z,4.00
2019-03-06T22:57:41.680Z,3.37
2019-03-06T23:00:18.845Z,4.00
2019-03-06T23:02:47.364Z,3.60
2019-03-06T23:05:15.947Z,3.83
2019-03-06T23:07:44.478Z,3.90
2019-03-06T23:10:12.992Z,3.87
2019-03-06T23:12:41.527Z,3.87
2019-03-06T23:15:09.955Z,4.23
2019-03-06T23:17:38.416Z,4.03
2019-03-06T23:20:08.573Z,3.80
2019-03-06T23:22:37.106Z,3.70
2019-03-06T23:25:06.352Z,4.47
2019-03-06T23:27:34.810Z,4.10
2019-03-06T23:30:04.864Z,4.80
2019-03-06T23:32:33.380Z,5.27
2019-03-06T23:35:01.917Z,4.50
2019-03-06T23:37:30.443Z,4.63
2019-03-06T23:39:58.955Z,4.70
2019-03-06T23:42:27.391Z,4.30
2019-03-06T23:44:55.914Z,4.20
2019-03-06T23:47:24.461Z,3.93
2019-03-06T23:49:52.955Z,4.10
2019-03-06T23:52:28.739Z,4.00
2019-03-06T23:54:57.280Z,3.80
2019-03-06T23:57:25.779Z,4.10
2019-03-06T23:59:54.235Z,4.13
